JFK weather

John F Kennedy International Airport
New York, New York, United States

Public forecast

Using degrees Fahrenheit for public forecast. Weather courtesy of forecast.io.

METAR (pilot weather report)

Retrieved 2017/08/17 02:51 UTC (16 minutes ago):

KJFK 170251Z 10003KT 10SM FEW060 24/22 A3001 RMK AO2 SLP161 T02440222 51011

TAF (pilot weather forecast)

Forecast is more than 12 hours old.

Retrieved 2017/08/16 00:48 UTC (1 day ago):

TAF KJFK 162340Z 1700/1806 18007KT P6SM FEW070 FM170100 VRB05KT P6SM SKC FM170300 35005KT P6SM SKC FM171300 06007KT P6SM FEW250 FM171700 17010KT P6SM FEW060 SCT250